createdAt,value
2018-03-25T00:00:06.106Z,13.20
2018-03-25T00:02:33.590Z,13.97
2018-03-25T00:05:01.064Z,12.87
2018-03-25T00:07:28.589Z,12.87
2018-03-25T00:09:56.068Z,12.03
2018-03-25T00:12:23.554Z,14.00
2018-03-25T00:14:51.009Z,12.20
2018-03-25T00:17:18.484Z,12.93
2018-03-25T00:19:46.708Z,13.03
2018-03-25T00:22:14.193Z,14.30
2018-03-25T00:24:41.661Z,12.47
2018-03-25T00:27:09.141Z,13.27
2018-03-25T00:29:37.378Z,12.97
2018-03-25T00:32:04.865Z,12.90
2018-03-25T00:34:33.102Z,13.60
2018-03-25T00:37:00.582Z,11.97
2018-03-25T00:39:28.046Z,12.30
2018-03-25T00:41:55.541Z,14.10
2018-03-25T00:44:23.005Z,13.53
2018-03-25T00:46:50.470Z,11.90
2018-03-25T00:49:17.942Z,12.17
2018-03-25T00:51:45.418Z,13.10
2018-03-25T00:54:12.889Z,12.50
2018-03-25T00:56:40.364Z,12.00
2018-03-25T00:59:08.605Z,12.47
2018-03-25T01:01:36.077Z,12.77
2018-03-25T01:04:03.554Z,13.50
2018-03-25T01:06:31.790Z,11.43
2018-03-25T01:08:59.254Z,11.37
2018-03-25T01:11:26.728Z,11.67
2018-03-25T01:13:54.199Z,12.10
2018-03-25T01:16:22.432Z,11.83
2018-03-25T01:18:49.906Z,13.27
2018-03-25T01:21:17.380Z,12.90
2018-03-25T01:23:44.860Z,11.63
2018-03-25T01:26:13.089Z,11.40
2018-03-25T01:28:40.564Z,11.33
2018-03-25T01:31:08.023Z,12.33
2018-03-25T01:33:35.555Z,11.80
2018-03-25T01:36:02.993Z,11.57
2018-03-25T01:38:30.462Z,13.47
2018-03-25T01:40:57.920Z,11.77
2018-03-25T01:43:25.388Z,12.30
2018-03-25T01:45:52.853Z,11.90
2018-03-25T01:48:20.360Z,11.40
2018-03-25T01:50:47.827Z,11.77
2018-03-25T01:53:15.310Z,11.33
2018-03-25T01:55:42.773Z,11.33
2018-03-25T01:58:10.228Z,11.40
2018-03-25T02:00:37.696Z,12.00
2018-03-25T02:03:05.161Z,10.97
2018-03-25T02:05:32.644Z,11.80
2018-03-25T02:08:00.876Z,11.03
2018-03-25T02:10:28.345Z,11.40
2018-03-25T02:12:55.804Z,10.87
2018-03-25T02:15:23.282Z,10.70
2018-03-25T02:17:50.738Z,12.23
2018-03-25T02:20:18.210Z,10.67
2018-03-25T02:22:46.440Z,11.70
2018-03-25T02:25:13.917Z,12.50
2018-03-25T02:27:41.386Z,11.10
2018-03-25T02:30:08.858Z,10.87
2018-03-25T02:32:37.106Z,12.23
2018-03-25T02:35:04.587Z,11.77
2018-03-25T02:37:32.815Z,12.03
2018-03-25T02:40:00.288Z,12.17
2018-03-25T02:42:27.751Z,11.73
2018-03-25T02:44:55.241Z,10.67
2018-03-25T02:47:23.478Z,12.10
2018-03-25T02:49:50.961Z,10.97
2018-03-25T02:52:18.417Z,12.17
2018-03-25T02:54:45.887Z,12.23
2018-03-25T02:57:14.139Z,12.17
2018-03-25T02:59:41.606Z,12.93
2018-03-25T03:02:09.076Z,12.50
2018-03-25T03:04:37.306Z,12.70
2018-03-25T03:07:04.788Z,12.63
2018-03-25T03:09:32.262Z,11.63
2018-03-25T03:11:59.729Z,12.30
2018-03-25T03:14:27.952Z,11.03
2018-03-25T03:16:55.422Z,11.40
2018-03-25T03:19:22.894Z,11.60
2018-03-25T03:21:50.379Z,11.00
2018-03-25T03:24:18.602Z,11.20
2018-03-25T03:26:46.067Z,10.93
2018-03-25T03:29:13.524Z,12.73
2018-03-25T03:31:41.010Z,11.70
2018-03-25T03:34:08.476Z,11.30
2018-03-25T03:36:35.960Z,11.77
2018-03-25T03:39:03.438Z,12.03
2018-03-25T03:41:30.908Z,11.00
2018-03-25T03:43:58.381Z,9.70
2018-03-25T03:46:25.848Z,11.83
2018-03-25T03:48:53.320Z,11.37
2018-03-25T03:51:21.560Z,11.13
2018-03-25T03:53:49.015Z,12.00
2018-03-25T03:56:16.496Z,10.53
2018-03-25T03:58:43.962Z,12.10
2018-03-25T04:01:11.451Z,12.03
2018-03-25T04:03:38.933Z,10.93
2018-03-25T04:06:06.393Z,12.47
2018-03-25T04:08:33.880Z,11.90
2018-03-25T04:11:01.341Z,11.30
2018-03-25T04:13:28.808Z,11.93
2018-03-25T04:15:56.273Z,11.00
2018-03-25T04:18:23.753Z,10.90
2018-03-25T04:20:51.212Z,10.90
2018-03-25T04:23:18.688Z,10.60
2018-03-25T04:25:46.152Z,10.87
2018-03-25T04:28:13.626Z,10.03
2018-03-25T04:30:41.093Z,10.93
2018-03-25T04:33:08.576Z,11.00
2018-03-25T04:35:36.031Z,12.47
2018-03-25T04:38:03.507Z,12.30
2018-03-25T04:40:31.740Z,12.90
2018-03-25T04:42:59.213Z,11.30
2018-03-25T04:45:26.664Z,10.20
2018-03-25T04:47:54.142Z,11.60
2018-03-25T04:50:22.384Z,10.93
2018-03-25T04:52:49.856Z,11.67
2018-03-25T04:55:17.317Z,10.20
2018-03-25T04:57:44.792Z,12.60
2018-03-25T05:00:13.023Z,11.30
2018-03-25T05:02:40.500Z,11.20
2018-03-25T05:05:07.962Z,11.40
2018-03-25T05:07:35.433Z,10.70
2018-03-25T05:10:02.915Z,11.30
2018-03-25T05:12:31.180Z,11.70
2018-03-25T05:14:59.411Z,11.47
2018-03-25T05:17:26.880Z,11.70
2018-03-25T05:19:54.365Z,11.20
2018-03-25T05:22:22.606Z,11.17
2018-03-25T05:24:50.094Z,11.30
2018-03-25T05:27:17.572Z,11.40
2018-03-25T05:29:45.797Z,11.20
2018-03-25T05:32:13.271Z,11.60
2018-03-25T05:34:40.740Z,11.10
2018-03-25T05:37:08.203Z,11.57
2018-03-25T05:39:36.443Z,11.00
2018-03-25T05:42:03.901Z,10.70
2018-03-25T05:44:31.374Z,11.23
2018-03-25T05:46:58.840Z,10.80
2018-03-25T05:49:26.313Z,12.20
2018-03-25T05:51:54.544Z,11.60
2018-03-25T05:54:22.012Z,12.53
2018-03-25T05:56:49.480Z,12.20
2018-03-25T05:59:16.958Z,12.20
2018-03-25T06:01:45.185Z,11.43
2018-03-25T06:04:12.655Z,12.30
2018-03-25T06:06:40.122Z,11.13
2018-03-25T06:09:07.733Z,11.07
2018-03-25T06:11:35.200Z,11.83
2018-03-25T06:14:02.678Z,10.30
2018-03-25T06:16:30.131Z,10.60
2018-03-25T06:18:57.628Z,12.07
2018-03-25T06:21:25.096Z,11.80
2018-03-25T06:23:53.327Z,12.50
2018-03-25T06:26:20.807Z,11.90
2018-03-25T06:28:48.264Z,13.00
2018-03-25T06:31:15.743Z,13.47
2018-03-25T06:33:43.973Z,13.10
2018-03-25T06:36:11.500Z,13.20
2018-03-25T06:38:39.737Z,12.10
2018-03-25T06:41:07.209Z,11.80
2018-03-25T06:43:34.689Z,12.80
2018-03-25T06:46:02.168Z,11.80
2018-03-25T06:48:29.646Z,13.83
2018-03-25T06:50:57.115Z,12.93
2018-03-25T06:53:25.346Z,13.47
2018-03-25T06:55:52.845Z,13.70
2018-03-25T06:58:20.310Z,13.57
2018-03-25T07:00:47.792Z,14.40
2018-03-25T07:03:16.024Z,12.87
2018-03-25T07:05:43.498Z,13.37
2018-03-25T07:08:10.961Z,12.97
2018-03-25T07:10:38.441Z,13.27
2018-03-25T07:13:06.671Z,14.07
2018-03-25T07:15:34.158Z,12.40
2018-03-25T07:18:01.614Z,12.20
2018-03-25T07:20:29.121Z,12.53
2018-03-25T07:22:56.578Z,10.73
2018-03-25T07:25:24.061Z,11.00
2018-03-25T07:27:51.531Z,10.30
2018-03-25T07:30:18.999Z,9.30
2018-03-25T07:32:46.477Z,9.87
2018-03-25T07:35:13.936Z,11.77
2018-03-25T07:37:42.201Z,10.27
2018-03-25T07:40:09.645Z,9.70
2018-03-25T07:42:37.150Z,10.10
2018-03-25T07:45:04.607Z,10.17
2018-03-25T07:47:32.076Z,8.53
2018-03-25T07:49:59.635Z,9.13
2018-03-25T07:52:27.028Z,9.80
2018-03-25T07:54:54.494Z,9.97
2018-03-25T07:57:22.010Z,10.40
2018-03-25T07:59:49.467Z,8.47
2018-03-25T08:02:16.947Z,10.50
2018-03-25T08:04:44.420Z,9.37
2018-03-25T08:07:11.885Z,8.90
2018-03-25T08:09:39.343Z,10.10
2018-03-25T08:12:06.814Z,9.57
2018-03-25T08:14:34.277Z,9.40
2018-03-25T08:17:02.528Z,8.97
2018-03-25T08:19:30.008Z,10.33
2018-03-25T08:21:57.479Z,9.83
2018-03-25T08:24:25.719Z,9.80
2018-03-25T08:26:53.188Z,10.40
2018-03-25T08:29:20.677Z,10.40
2018-03-25T08:31:48.924Z,10.40
2018-03-25T08:34:16.395Z,11.00
2018-03-25T08:36:43.901Z,9.87
2018-03-25T08:39:11.392Z,11.00
2018-03-25T08:41:38.892Z,11.20
2018-03-25T08:44:06.359Z,10.97
2018-03-25T08:46:34.717Z,12.63
2018-03-25T08:49:02.197Z,13.73
2018-03-25T08:51:29.669Z,14.23
2018-03-25T08:53:57.864Z,13.87
2018-03-25T08:56:25.400Z,13.30
2018-03-25T08:58:52.905Z,13.63
2018-03-25T09:01:21.201Z,13.97
2018-03-25T09:03:49.466Z,14.27
2018-03-25T09:06:17.885Z,14.67
2018-03-25T09:08:45.377Z,13.20
2018-03-25T09:11:12.852Z,13.97
2018-03-25T09:13:40.366Z,15.07
2018-03-25T09:16:08.013Z,15.40
2018-03-25T09:18:35.552Z,14.80
2018-03-25T09:21:03.068Z,14.10
2018-03-25T09:23:30.566Z,15.13
2018-03-25T09:25:58.058Z,14.97
2018-03-25T09:28:25.554Z,14.83
2018-03-25T09:30:53.030Z,14.57
2018-03-25T09:33:20.707Z,13.90
2018-03-25T09:35:48.977Z,14.33
2018-03-25T09:38:17.241Z,14.80
2018-03-25T09:40:45.624Z,13.93
2018-03-25T09:43:13.928Z,15.03
2018-03-25T09:45:41.394Z,15.30
2018-03-25T09:48:08.876Z,14.37
2018-03-25T09:50:37.363Z,14.67
2018-03-25T09:53:04.833Z,14.60
2018-03-25T09:55:32.304Z,15.20
2018-03-25T09:57:59.836Z,14.90
2018-03-25T10:00:30.221Z,14.40
2018-03-25T10:02:59.507Z,14.20
2018-03-25T10:05:27.749Z,14.77
2018-03-25T10:07:55.239Z,14.00
2018-03-25T10:10:23.493Z,14.47
2018-03-25T10:12:50.957Z,15.63
2018-03-25T10:15:18.438Z,12.83
2018-03-25T10:17:46.693Z,13.20
2018-03-25T10:20:14.222Z,13.43
2018-03-25T10:22:41.780Z,16.13
2018-03-25T10:25:09.358Z,14.10
2018-03-25T10:27:37.014Z,15.90
2018-03-25T10:30:04.531Z,15.73
2018-03-25T10:32:32.094Z,15.80
2018-03-25T10:34:59.696Z,14.80
2018-03-25T10:37:27.169Z,14.70
2018-03-25T10:39:54.701Z,16.00
2018-03-25T10:42:22.180Z,17.80
2018-03-25T10:44:49.676Z,16.60
2018-03-25T10:47:17.221Z,17.47
2018-03-25T10:49:45.519Z,15.23
2018-03-25T10:52:12.992Z,17.10
2018-03-25T10:54:40.484Z,16.57
2018-03-25T10:57:07.989Z,16.17
2018-03-25T10:59:35.482Z,15.83
2018-03-25T11:02:02.993Z,16.17
2018-03-25T11:04:31.236Z,16.10
2018-03-25T11:06:59.532Z,15.07
2018-03-25T11:09:27.810Z,15.90
2018-03-25T11:11:56.148Z,16.07
2018-03-25T11:14:23.736Z,16.83
2018-03-25T11:16:51.221Z,15.40
2018-03-25T11:19:19.508Z,14.40
2018-03-25T11:21:46.986Z,16.53
2018-03-25T11:24:15.196Z,14.80
2018-03-25T11:26:42.709Z,16.47
2018-03-25T11:29:10.176Z,15.53
2018-03-25T11:31:37.664Z,16.00
2018-03-25T11:34:05.137Z,14.50
2018-03-25T11:36:32.688Z,16.17
2018-03-25T11:39:00.157Z,15.20
2018-03-25T11:41:27.628Z,16.53
2018-03-25T11:43:55.113Z,16.70
2018-03-25T11:46:22.606Z,15.53
2018-03-25T11:48:50.116Z,15.40
2018-03-25T11:51:17.597Z,14.67
2018-03-25T11:53:45.088Z,15.30
2018-03-25T11:56:12.588Z,14.90
2018-03-25T11:58:40.072Z,14.80
2018-03-25T12:01:07.564Z,13.80
2018-03-25T12:03:35.042Z,14.23
2018-03-25T12:06:02.529Z,14.67
2018-03-25T12:08:30.017Z,14.47
2018-03-25T12:10:57.515Z,15.87
2018-03-25T12:13:25.004Z,14.03
2018-03-25T12:15:52.509Z,14.53
2018-03-25T12:18:19.989Z,17.03
2018-03-25T12:20:48.249Z,15.77
2018-03-25T12:23:15.730Z,15.40
2018-03-25T12:25:43.966Z,14.40
2018-03-25T12:28:11.470Z,13.30
2018-03-25T12:30:39.712Z,13.90
2018-03-25T12:33:07.213Z,14.60
2018-03-25T12:35:35.457Z,14.53
2018-03-25T12:38:02.944Z,14.97
2018-03-25T12:40:30.418Z,14.47
2018-03-25T12:42:57.908Z,13.37
2018-03-25T12:45:25.380Z,14.60
2018-03-25T12:47:52.930Z,13.40
2018-03-25T12:50:20.432Z,12.40
2018-03-25T12:52:48.692Z,12.70
2018-03-25T12:55:16.178Z,13.57
2018-03-25T12:57:43.698Z,12.50
2018-03-25T13:00:11.173Z,13.77
2018-03-25T13:02:39.451Z,13.20
2018-03-25T13:05:07.710Z,13.77
2018-03-25T13:07:35.200Z,13.30
2018-03-25T13:10:02.708Z,12.47
2018-03-25T13:12:30.218Z,13.30
2018-03-25T13:14:57.732Z,12.23
2018-03-25T13:17:25.231Z,11.83
2018-03-25T13:19:53.470Z,12.97
2018-03-25T13:22:21.002Z,10.90
2018-03-25T13:24:48.487Z,12.40
2018-03-25T13:27:15.970Z,11.50
2018-03-25T13:29:43.450Z,11.80
2018-03-25T13:32:10.945Z,10.73
2018-03-25T13:34:38.439Z,11.63
2018-03-25T13:37:06.685Z,11.20
2018-03-25T13:39:34.179Z,11.73
2018-03-25T13:42:02.452Z,11.60
2018-03-25T13:44:30.738Z,10.90
2018-03-25T13:46:59.009Z,12.60
2018-03-25T13:49:27.309Z,12.03
2018-03-25T13:51:54.781Z,12.93
2018-03-25T13:54:22.269Z,11.87
2018-03-25T13:56:49.732Z,11.37
2018-03-25T13:59:17.217Z,9.90
2018-03-25T14:01:45.464Z,11.53
2018-03-25T14:04:13.713Z,12.33
2018-03-25T14:06:41.187Z,13.20
2018-03-25T14:09:08.664Z,11.47
2018-03-25T14:11:36.153Z,11.47
2018-03-25T14:14:04.454Z,12.70
2018-03-25T14:16:31.931Z,13.70
2018-03-25T14:18:59.408Z,10.77
2018-03-25T14:21:26.881Z,11.80
2018-03-25T14:23:54.360Z,11.83
2018-03-25T14:26:22.613Z,10.73
2018-03-25T14:28:50.092Z,10.43
2018-03-25T14:31:18.332Z,10.40
2018-03-25T14:33:45.821Z,9.73
2018-03-25T14:36:14.054Z,10.07
2018-03-25T14:38:41.534Z,10.03
2018-03-25T14:41:09.000Z,10.70
2018-03-25T14:43:36.484Z,10.43
2018-03-25T14:46:03.954Z,11.17
2018-03-25T14:48:31.438Z,11.13
2018-03-25T14:50:59.692Z,9.70
2018-03-25T14:53:27.193Z,9.80
2018-03-25T14:55:54.694Z,9.70
2018-03-25T14:58:22.157Z,10.47
2018-03-25T15:00:49.644Z,10.50
2018-03-25T15:03:17.134Z,10.17
2018-03-25T15:05:45.401Z,9.47
2018-03-25T15:08:12.896Z,8.20
2018-03-25T15:10:40.391Z,9.73
2018-03-25T15:13:07.864Z,9.70
2018-03-25T15:15:35.348Z,10.43
2018-03-25T15:18:02.822Z,9.30
2018-03-25T15:20:31.057Z,9.77
2018-03-25T15:22:58.512Z,9.47
2018-03-25T15:25:26.001Z,9.43
2018-03-25T15:27:53.469Z,10.33
2018-03-25T15:30:21.711Z,10.20
2018-03-25T15:32:49.181Z,8.63
2018-03-25T15:35:16.671Z,9.40
2018-03-25T15:37:44.136Z,11.53
2018-03-25T15:40:11.617Z,10.67
2018-03-25T15:42:39.087Z,10.20
2018-03-25T15:45:06.565Z,10.27
2018-03-25T15:47:34.034Z,10.73
2018-03-25T15:50:01.524Z,10.30
2018-03-25T15:52:28.985Z,9.90
2018-03-25T15:54:56.490Z,9.77
2018-03-25T15:57:23.961Z,10.63
2018-03-25T15:59:51.445Z,11.27
2018-03-25T16:02:19.680Z,12.37
2018-03-25T16:04:47.168Z,12.00
2018-03-25T16:07:15.404Z,10.50
2018-03-25T16:09:42.932Z,11.10
2018-03-25T16:12:10.362Z,9.43
2018-03-25T16:14:37.840Z,10.40
2018-03-25T16:17:05.321Z,10.30
2018-03-25T16:19:32.796Z,10.60
2018-03-25T16:22:00.337Z,10.60
2018-03-25T16:24:28.529Z,10.53
2018-03-25T16:26:56.013Z,11.50
2018-03-25T16:29:23.476Z,10.67
2018-03-25T16:31:51.725Z,10.83
2018-03-25T16:34:19.186Z,9.77
2018-03-25T16:36:46.670Z,11.53
2018-03-25T16:39:14.907Z,10.50
2018-03-25T16:41:43.167Z,10.70
2018-03-25T16:44:10.657Z,11.27
2018-03-25T16:46:38.126Z,11.57
2018-03-25T16:49:05.597Z,11.83
2018-03-25T16:51:33.841Z,11.27
2018-03-25T16:54:01.337Z,12.10
2018-03-25T16:56:29.593Z,11.00
2018-03-25T16:58:57.062Z,11.33
2018-03-25T17:01:25.325Z,11.20
2018-03-25T17:03:52.808Z,10.73
2018-03-25T17:06:21.048Z,11.50
2018-03-25T17:08:48.531Z,10.80
2018-03-25T17:11:16.812Z,11.00
2018-03-25T17:13:45.046Z,10.50
2018-03-25T17:16:12.545Z,10.90
2018-03-25T17:18:40.883Z,10.90
2018-03-25T17:21:08.484Z,11.63
2018-03-25T17:23:37.062Z,10.00
2018-03-25T17:26:05.356Z,11.40
2018-03-25T17:28:32.966Z,11.93
2018-03-25T17:31:00.414Z,12.07
2018-03-25T17:33:27.908Z,11.10
2018-03-25T17:35:55.395Z,10.60
2018-03-25T17:38:22.892Z,10.80
2018-03-25T17:40:50.504Z,11.33
2018-03-25T17:43:18.077Z,11.80
2018-03-25T17:45:45.686Z,10.50
2018-03-25T17:48:13.194Z,12.27
2018-03-25T17:50:40.683Z,12.37
2018-03-25T17:53:08.253Z,10.30
2018-03-25T17:55:35.820Z,12.80
2018-03-25T17:58:04.022Z,11.60
2018-03-25T18:00:32.271Z,12.03
2018-03-25T18:02:59.743Z,11.30
2018-03-25T18:05:27.517Z,12.07
2018-03-25T18:07:55.791Z,13.10
2018-03-25T18:10:23.291Z,14.63
2018-03-25T18:12:50.788Z,12.53
2018-03-25T18:15:18.257Z,13.80
2018-03-25T18:17:45.738Z,14.97
2018-03-25T18:20:13.987Z,13.60
2018-03-25T18:22:41.490Z,14.33
2018-03-25T18:25:08.965Z,13.63
2018-03-25T18:27:36.464Z,15.43
2018-03-25T18:30:03.970Z,14.33
2018-03-25T18:32:31.465Z,14.50
2018-03-25T18:34:58.925Z,15.10
2018-03-25T18:37:26.422Z,13.60
2018-03-25T18:39:54.660Z,13.53
2018-03-25T18:42:22.148Z,13.40
2018-03-25T18:44:50.396Z,14.90
2018-03-25T18:47:17.857Z,16.23
2018-03-25T18:49:45.398Z,14.30
2018-03-25T18:52:12.878Z,12.97
2018-03-25T18:54:40.361Z,15.50
2018-03-25T18:57:08.627Z,14.60
2018-03-25T18:59:36.881Z,12.63
2018-03-25T19:02:04.350Z,12.77
2018-03-25T19:04:31.870Z,11.77
2018-03-25T19:06:59.352Z,13.33
2018-03-25T19:09:26.825Z,12.00
2018-03-25T19:11:54.305Z,12.90
2018-03-25T19:14:22.591Z,11.80
2018-03-25T19:16:50.079Z,12.47
2018-03-25T19:19:17.549Z,13.50
2018-03-25T19:21:45.022Z,14.80
2018-03-25T19:24:12.502Z,15.77
2018-03-25T19:26:39.970Z,12.93
2018-03-25T19:29:08.209Z,15.00
2018-03-25T19:31:35.684Z,14.27
2018-03-25T19:34:03.161Z,14.10
2018-03-25T19:36:31.402Z,14.60
2018-03-25T19:38:58.872Z,14.53
2018-03-25T19:41:26.345Z,13.57
2018-03-25T19:43:54.587Z,13.77
2018-03-25T19:46:22.046Z,12.23
2018-03-25T19:48:49.530Z,12.47
2018-03-25T19:51:17.002Z,13.83
2018-03-25T19:53:45.266Z,14.67
2018-03-25T19:56:13.536Z,15.70
2018-03-25T19:58:41.424Z,17.03
2018-03-25T20:01:08.943Z,15.87
2018-03-25T20:03:36.421Z,17.20
2018-03-25T20:06:04.682Z,15.03
2018-03-25T20:08:32.167Z,14.67
2018-03-25T20:11:00.405Z,15.80
2018-03-25T20:13:27.881Z,14.00
2018-03-25T20:15:55.361Z,15.50
2018-03-25T20:18:23.595Z,13.73
2018-03-25T20:20:51.080Z,14.87
2018-03-25T20:23:18.545Z,15.17
2018-03-25T20:25:46.038Z,13.70
2018-03-25T20:28:13.501Z,12.90
2018-03-25T20:30:40.977Z,13.77
2018-03-25T20:33:08.441Z,14.80
2018-03-25T20:35:35.915Z,13.13
2018-03-25T20:38:03.379Z,13.30
2018-03-25T20:40:30.868Z,14.97
2018-03-25T20:42:59.089Z,14.17
2018-03-25T20:45:26.557Z,14.70
2018-03-25T20:47:54.029Z,14.20
2018-03-25T20:50:21.497Z,13.13
2018-03-25T20:52:48.980Z,13.47
2018-03-25T20:55:16.455Z,12.60
2018-03-25T20:57:43.916Z,13.90
2018-03-25T21:00:11.394Z,16.20
2018-03-25T21:02:38.866Z,14.13
2018-03-25T21:05:06.346Z,14.40
2018-03-25T21:07:34.576Z,15.20
2018-03-25T21:10:02.066Z,14.50
2018-03-25T21:12:29.557Z,14.30
2018-03-25T21:14:57.787Z,13.73
2018-03-25T21:17:25.257Z,14.20
2018-03-25T21:19:52.725Z,14.00
2018-03-25T21:22:20.229Z,14.17
2018-03-25T21:24:47.685Z,11.63
2018-03-25T21:27:15.161Z,11.50
2018-03-25T21:29:42.616Z,12.80
2018-03-25T21:32:10.086Z,13.20
2018-03-25T21:34:37.548Z,12.97
2018-03-25T21:37:05.017Z,13.97
2018-03-25T21:39:32.478Z,13.60
2018-03-25T21:41:59.954Z,14.60
2018-03-25T21:44:28.182Z,14.30
2018-03-25T21:46:55.656Z,14.93
2018-03-25T21:49:23.122Z,14.93
2018-03-25T21:51:50.657Z,13.80
2018-03-25T21:54:18.836Z,15.17
2018-03-25T21:56:46.317Z,14.57
2018-03-25T21:59:13.773Z,16.13
2018-03-25T22:01:41.246Z,14.57
2018-03-25T22:04:09.481Z,14.77
2018-03-25T22:06:36.953Z,15.10
2018-03-25T22:09:05.149Z,14.83
2018-03-25T22:11:33.410Z,14.93
2018-03-25T22:14:00.919Z,14.07
2018-03-25T22:16:29.152Z,13.80
2018-03-25T22:18:59.451Z,15.27
2018-03-25T22:21:26.937Z,14.77
2018-03-25T22:23:54.420Z,15.63
2018-03-25T22:26:21.888Z,15.40
2018-03-25T22:28:49.357Z,15.43
2018-03-25T22:31:16.822Z,15.97
2018-03-25T22:33:44.296Z,14.40
2018-03-25T22:36:11.775Z,14.40
2018-03-25T22:38:39.253Z,15.63
2018-03-25T22:41:07.485Z,15.83
2018-03-25T22:43:34.961Z,16.57
2018-03-25T22:46:02.452Z,15.13
2018-03-25T22:48:30.705Z,15.97
2018-03-25T22:50:58.167Z,15.93
2018-03-25T22:53:25.635Z,16.20
2018-03-25T22:55:53.896Z,16.50
2018-03-25T22:58:21.377Z,15.90
2018-03-25T23:00:49.616Z,16.50
2018-03-25T23:03:17.100Z,15.83
2018-03-25T23:05:45.340Z,15.47
2018-03-25T23:08:12.831Z,17.30
2018-03-25T23:10:41.059Z,16.93
2018-03-25T23:13:08.536Z,16.57
2018-03-25T23:15:35.993Z,16.30
2018-03-25T23:18:03.452Z,16.43
2018-03-25T23:20:30.933Z,16.83
2018-03-25T23:22:59.163Z,17.07
2018-03-25T23:25:26.632Z,15.83
2018-03-25T23:27:54.093Z,16.67
2018-03-25T23:30:21.580Z,14.40
2018-03-25T23:32:49.822Z,16.17
2018-03-25T23:35:17.296Z,16.23
2018-03-25T23:37:44.768Z,15.57
2018-03-25T23:40:12.266Z,15.40
2018-03-25T23:42:39.734Z,16.20
2018-03-25T23:45:07.208Z,15.63
2018-03-25T23:47:34.673Z,15.20
2018-03-25T23:50:02.141Z,15.50
2018-03-25T23:52:29.620Z,16.30
2018-03-25T23:54:57.857Z,15.17
2018-03-25T23:57:25.328Z,15.53
2018-03-25T23:59:52.809Z,16.33
